sensor_id;sensor_type;location;lat;lon;timestamp;P1;durP1;ratioP1;P2;durP2;ratioP2
62052;SDS011;48300;52.902;6.534;2023-12-07T00:00:31;11.00;;;5.65;;
62052;SDS011;48300;52.902;6.534;2023-12-07T00:02:57;10.55;;;5.50;;
62052;SDS011;48300;52.902;6.534;2023-12-07T00:05:24;11.65;;;5.63;;
62052;SDS011;48300;52.902;6.534;2023-12-07T00:07:50;9.13;;;5.70;;
62052;SDS011;48300;52.902;6.534;2023-12-07T00:10:16;11.20;;;5.95;;
62052;SDS011;48300;52.902;6.534;2023-12-07T00:12:42;9.88;;;5.40;;
62052;SDS011;48300;52.902;6.534;2023-12-07T00:15:08;9.18;;;5.03;;
62052;SDS011;48300;52.902;6.534;2023-12-07T00:17:34;10.13;;;5.40;;
62052;SDS011;48300;52.902;6.534;2023-12-07T00:20:00;8.65;;;4.97;;
62052;SDS011;48300;52.902;6.534;2023-12-07T00:22:29;9.38;;;5.32;;
62052;SDS011;48300;52.902;6.534;2023-12-07T00:24:55;9.30;;;5.60;;
62052;SDS011;48300;52.902;6.534;2023-12-07T00:27:21;12.30;;;5.60;;
62052;SDS011;48300;52.902;6.534;2023-12-07T00:29:47;9.30;;;4.93;;
62052;SDS011;48300;52.902;6.534;2023-12-07T00:32:13;8.93;;;5.07;;
62052;SDS011;48300;52.902;6.534;2023-12-07T00:34:39;12.77;;;5.30;;
62052;SDS011;48300;52.902;6.534;2023-12-07T00:37:05;14.73;;;6.68;;
62052;SDS011;48300;52.902;6.534;2023-12-07T00:39:32;11.45;;;5.47;;
62052;SDS011;48300;52.902;6.534;2023-12-07T00:41:58;9.15;;;5.07;;
62052;SDS011;48300;52.902;6.534;2023-12-07T00:44:24;9.38;;;5.28;;
62052;SDS011;48300;52.902;6.534;2023-12-07T00:46:50;9.52;;;5.30;;
62052;SDS011;48300;52.902;6.534;2023-12-07T00:49:16;10.10;;;4.90;;
62052;SDS011;48300;52.902;6.534;2023-12-07T00:51:42;11.23;;;5.60;;
62052;SDS011;48300;52.902;6.534;2023-12-07T00:54:08;12.75;;;6.20;;
62052;SDS011;48300;52.902;6.534;2023-12-07T00:56:34;14.40;;;5.97;;
62052;SDS011;48300;52.902;6.534;2023-12-07T00:59:00;10.85;;;5.50;;
62052;SDS011;48300;52.902;6.534;2023-12-07T01:01:27;11.77;;;4.88;;
62052;SDS011;48300;52.902;6.534;2023-12-07T01:03:53;7.47;;;4.85;;
62052;SDS011;48300;52.902;6.534;2023-12-07T01:06:19;11.20;;;5.47;;
62052;SDS011;48300;52.902;6.534;2023-12-07T01:08:45;10.15;;;5.63;;
62052;SDS011;48300;52.902;6.534;2023-12-07T01:11:11;10.73;;;5.50;;
62052;SDS011;48300;52.902;6.534;2023-12-07T01:13:37;12.00;;;5.93;;
62052;SDS011;48300;52.902;6.534;2023-12-07T01:16:03;12.98;;;5.60;;
62052;SDS011;48300;52.902;6.534;2023-12-07T01:18:29;11.48;;;6.82;;
62052;SDS011;48300;52.902;6.534;2023-12-07T01:20:55;12.95;;;6.20;;
62052;SDS011;48300;52.902;6.534;2023-12-07T01:23:21;17.67;;;7.20;;
62052;SDS011;48300;52.902;6.534;2023-12-07T01:25:47;11.35;;;5.82;;
62052;SDS011;48300;52.902;6.534;2023-12-07T01:28:13;11.52;;;6.15;;
62052;SDS011;48300;52.902;6.534;2023-12-07T01:30:39;10.88;;;6.28;;
62052;SDS011;48300;52.902;6.534;2023-12-07T01:33:05;12.15;;;6.07;;
62052;SDS011;48300;52.902;6.534;2023-12-07T01:35:31;12.35;;;6.65;;
62052;SDS011;48300;52.902;6.534;2023-12-07T01:37:57;14.77;;;6.80;;
62052;SDS011;48300;52.902;6.534;2023-12-07T01:40:23;12.77;;;7.45;;
62052;SDS011;48300;52.902;6.534;2023-12-07T01:42:49;11.98;;;7.03;;
62052;SDS011;48300;52.902;6.534;2023-12-07T01:45:16;17.98;;;6.97;;
62052;SDS011;48300;52.902;6.534;2023-12-07T01:47:42;12.15;;;7.18;;
62052;SDS011;48300;52.902;6.534;2023-12-07T01:50:09;14.93;;;7.32;;
62052;SDS011;48300;52.902;6.534;2023-12-07T01:52:36;14.13;;;7.72;;
62052;SDS011;48300;52.902;6.534;2023-12-07T01:55:04;14.73;;;7.32;;
62052;SDS011;48300;52.902;6.534;2023-12-07T01:57:30;15.95;;;8.25;;
62052;SDS011;48300;52.902;6.534;2023-12-07T01:59:56;17.00;;;7.60;;
62052;SDS011;48300;52.902;6.534;2023-12-07T02:02:22;17.45;;;8.50;;
62052;SDS011;48300;52.902;6.534;2023-12-07T02:04:49;17.05;;;7.93;;
62052;SDS011;48300;52.902;6.534;2023-12-07T02:07:15;18.00;;;8.50;;
62052;SDS011;48300;52.902;6.534;2023-12-07T02:09:41;17.92;;;8.65;;
62052;SDS011;48300;52.902;6.534;2023-12-07T02:12:07;15.65;;;8.15;;
62052;SDS011;48300;52.902;6.534;2023-12-07T02:14:33;16.92;;;8.07;;
62052;SDS011;48300;52.902;6.534;2023-12-07T02:17:13;15.80;;;7.75;;
62052;SDS011;48300;52.902;6.534;2023-12-07T02:22:26;16.75;;;8.32;;
62052;SDS011;48300;52.902;6.534;2023-12-07T02:25:04;14.80;;;7.70;;
62052;SDS011;48300;52.902;6.534;2023-12-07T02:27:41;13.73;;;7.93;;
62052;SDS011;48300;52.902;6.534;2023-12-07T02:30:08;15.15;;;7.95;;
62052;SDS011;48300;52.902;6.534;2023-12-07T02:32:35;15.88;;;8.57;;
62052;SDS011;48300;52.902;6.534;2023-12-07T02:35:02;13.20;;;7.68;;
62052;SDS011;48300;52.902;6.534;2023-12-07T02:37:28;14.98;;;7.55;;
62052;SDS011;48300;52.902;6.534;2023-12-07T02:39:58;15.50;;;8.23;;
62052;SDS011;48300;52.902;6.534;2023-12-07T02:42:24;15.60;;;7.85;;
62052;SDS011;48300;52.902;6.534;2023-12-07T02:44:52;14.70;;;8.93;;
62052;SDS011;48300;52.902;6.534;2023-12-07T02:47:18;14.70;;;7.65;;
62052;SDS011;48300;52.902;6.534;2023-12-07T02:49:44;16.13;;;7.72;;
62052;SDS011;48300;52.902;6.534;2023-12-07T02:52:10;15.77;;;8.18;;
62052;SDS011;48300;52.902;6.534;2023-12-07T02:54:36;15.27;;;8.23;;
62052;SDS011;48300;52.902;6.534;2023-12-07T02:57:02;13.70;;;7.45;;
62052;SDS011;48300;52.902;6.534;2023-12-07T02:59:28;18.17;;;7.68;;
62052;SDS011;48300;52.902;6.534;2023-12-07T03:01:54;14.45;;;8.25;;
62052;SDS011;48300;52.902;6.534;2023-12-07T03:04:20;16.15;;;6.93;;
62052;SDS011;48300;52.902;6.534;2023-12-07T03:06:46;19.08;;;7.80;;
62052;SDS011;48300;52.902;6.534;2023-12-07T03:09:12;14.95;;;7.28;;
62052;SDS011;48300;52.902;6.534;2023-12-07T03:11:38;14.93;;;7.45;;
62052;SDS011;48300;52.902;6.534;2023-12-07T03:14:05;13.88;;;7.55;;
62052;SDS011;48300;52.902;6.534;2023-12-07T03:16:30;13.68;;;7.75;;
62052;SDS011;48300;52.902;6.534;2023-12-07T03:18:56;13.25;;;7.38;;
62052;SDS011;48300;52.902;6.534;2023-12-07T03:21:22;13.73;;;7.45;;
62052;SDS011;48300;52.902;6.534;2023-12-07T03:23:48;15.75;;;8.18;;
62052;SDS011;48300;52.902;6.534;2023-12-07T03:26:14;15.70;;;7.85;;
62052;SDS011;48300;52.902;6.534;2023-12-07T03:28:41;15.77;;;8.15;;
62052;SDS011;48300;52.902;6.534;2023-12-07T03:31:06;14.15;;;7.30;;
62052;SDS011;48300;52.902;6.534;2023-12-07T03:33:32;15.50;;;8.00;;
62052;SDS011;48300;52.902;6.534;2023-12-07T03:35:58;15.48;;;8.10;;
62052;SDS011;48300;52.902;6.534;2023-12-07T03:38:24;14.77;;;7.25;;
62052;SDS011;48300;52.902;6.534;2023-12-07T03:40:50;13.55;;;6.85;;
62052;SDS011;48300;52.902;6.534;2023-12-07T03:43:18;16.25;;;8.10;;
62052;SDS011;48300;52.902;6.534;2023-12-07T03:45:45;17.17;;;8.85;;
62052;SDS011;48300;52.902;6.534;2023-12-07T03:48:12;17.38;;;8.30;;
62052;SDS011;48300;52.902;6.534;2023-12-07T03:50:38;15.63;;;7.70;;
62052;SDS011;48300;52.902;6.534;2023-12-07T03:53:04;18.92;;;7.38;;
62052;SDS011;48300;52.902;6.534;2023-12-07T03:55:30;13.73;;;7.43;;
62052;SDS011;48300;52.902;6.534;2023-12-07T03:57:56;18.50;;;7.25;;
62052;SDS011;48300;52.902;6.534;2023-12-07T04:00:22;13.65;;;7.13;;
62052;SDS011;48300;52.902;6.534;2023-12-07T04:02:48;14.02;;;7.40;;
62052;SDS011;48300;52.902;6.534;2023-12-07T04:05:14;12.82;;;6.82;;
62052;SDS011;48300;52.902;6.534;2023-12-07T04:07:40;53.00;;;8.50;;
62052;SDS011;48300;52.902;6.534;2023-12-07T04:10:06;11.40;;;5.97;;
62052;SDS011;48300;52.902;6.534;2023-12-07T04:12:33;17.67;;;8.77;;
62052;SDS011;48300;52.902;6.534;2023-12-07T04:14:58;14.40;;;7.32;;
62052;SDS011;48300;52.902;6.534;2023-12-07T04:17:25;12.43;;;7.20;;
62052;SDS011;48300;52.902;6.534;2023-12-07T04:19:51;16.13;;;7.30;;
62052;SDS011;48300;52.902;6.534;2023-12-07T04:22:17;14.10;;;7.15;;
62052;SDS011;48300;52.902;6.534;2023-12-07T04:24:43;20.25;;;8.25;;
62052;SDS011;48300;52.902;6.534;2023-12-07T04:27:10;18.88;;;8.93;;
62052;SDS011;48300;52.902;6.534;2023-12-07T04:29:36;17.60;;;8.75;;
62052;SDS011;48300;52.902;6.534;2023-12-07T04:32:02;22.25;;;9.25;;
62052;SDS011;48300;52.902;6.534;2023-12-07T04:34:29;22.65;;;9.23;;
62052;SDS011;48300;52.902;6.534;2023-12-07T04:36:55;21.88;;;10.20;;
62052;SDS011;48300;52.902;6.534;2023-12-07T04:39:21;21.40;;;9.65;;
62052;SDS011;48300;52.902;6.534;2023-12-07T04:41:48;22.05;;;10.77;;
62052;SDS011;48300;52.902;6.534;2023-12-07T04:44:14;21.00;;;10.68;;
62052;SDS011;48300;52.902;6.534;2023-12-07T04:46:40;24.42;;;10.45;;
62052;SDS011;48300;52.902;6.534;2023-12-07T04:49:07;24.00;;;10.45;;
62052;SDS011;48300;52.902;6.534;2023-12-07T04:51:33;20.85;;;10.10;;
62052;SDS011;48300;52.902;6.534;2023-12-07T04:53:59;23.08;;;10.25;;
62052;SDS011;48300;52.902;6.534;2023-12-07T04:56:25;19.27;;;8.93;;
62052;SDS011;48300;52.902;6.534;2023-12-07T04:58:51;22.13;;;9.85;;
62052;SDS011;48300;52.902;6.534;2023-12-07T05:01:17;19.05;;;9.38;;
62052;SDS011;48300;52.902;6.534;2023-12-07T05:06:12;23.70;;;10.75;;
62052;SDS011;48300;52.902;6.534;2023-12-07T05:08:39;24.52;;;10.98;;
62052;SDS011;48300;52.902;6.534;2023-12-07T05:11:05;21.92;;;10.88;;
62052;SDS011;48300;52.902;6.534;2023-12-07T05:13:31;23.85;;;11.80;;
62052;SDS011;48300;52.902;6.534;2023-12-07T05:15:58;23.35;;;11.02;;
62052;SDS011;48300;52.902;6.534;2023-12-07T05:18:25;21.52;;;10.45;;
62052;SDS011;48300;52.902;6.534;2023-12-07T05:20:51;21.90;;;10.38;;
62052;SDS011;48300;52.902;6.534;2023-12-07T05:23:17;19.23;;;9.57;;
62052;SDS011;48300;52.902;6.534;2023-12-07T05:25:43;24.15;;;10.80;;
62052;SDS011;48300;52.902;6.534;2023-12-07T05:28:09;21.40;;;10.63;;
62052;SDS011;48300;52.902;6.534;2023-12-07T05:30:35;20.08;;;9.90;;
62052;SDS011;48300;52.902;6.534;2023-12-07T05:33:02;22.48;;;10.20;;
62052;SDS011;48300;52.902;6.534;2023-12-07T05:35:28;22.42;;;10.35;;
62052;SDS011;48300;52.902;6.534;2023-12-07T05:37:54;22.60;;;11.20;;
62052;SDS011;48300;52.902;6.534;2023-12-07T05:40:20;22.67;;;10.18;;
62052;SDS011;48300;52.902;6.534;2023-12-07T05:42:48;25.13;;;10.98;;
62052;SDS011;48300;52.902;6.534;2023-12-07T05:45:15;20.20;;;10.07;;
62052;SDS011;48300;52.902;6.534;2023-12-07T05:47:41;21.02;;;10.18;;
62052;SDS011;48300;52.902;6.534;2023-12-07T05:50:07;20.80;;;10.93;;
62052;SDS011;48300;52.902;6.534;2023-12-07T05:52:34;25.67;;;11.13;;
62052;SDS011;48300;52.902;6.534;2023-12-07T05:55:00;22.80;;;10.93;;
62052;SDS011;48300;52.902;6.534;2023-12-07T05:57:27;26.42;;;11.07;;
62052;SDS011;48300;52.902;6.534;2023-12-07T05:59:53;21.55;;;9.25;;
62052;SDS011;48300;52.902;6.534;2023-12-07T06:02:19;21.02;;;9.95;;
62052;SDS011;48300;52.902;6.534;2023-12-07T06:04:45;19.88;;;9.38;;
62052;SDS011;48300;52.902;6.534;2023-12-07T06:07:11;20.17;;;9.70;;
62052;SDS011;48300;52.902;6.534;2023-12-07T06:09:37;20.40;;;9.82;;
62052;SDS011;48300;52.902;6.534;2023-12-07T06:12:03;18.90;;;9.63;;
62052;SDS011;48300;52.902;6.534;2023-12-07T06:14:29;20.80;;;10.60;;
62052;SDS011;48300;52.902;6.534;2023-12-07T06:16:57;21.80;;;9.63;;
62052;SDS011;48300;52.902;6.534;2023-12-07T06:19:24;22.83;;;10.05;;
62052;SDS011;48300;52.902;6.534;2023-12-07T06:21:50;18.58;;;9.30;;
62052;SDS011;48300;52.902;6.534;2023-12-07T06:24:16;17.25;;;8.60;;
62052;SDS011;48300;52.902;6.534;2023-12-07T06:26:42;16.88;;;8.35;;
62052;SDS011;48300;52.902;6.534;2023-12-07T06:29:08;16.33;;;8.68;;
62052;SDS011;48300;52.902;6.534;2023-12-07T06:31:34;15.80;;;8.05;;
62052;SDS011;48300;52.902;6.534;2023-12-07T06:34:00;16.08;;;8.18;;
62052;SDS011;48300;52.902;6.534;2023-12-07T06:36:27;20.63;;;8.93;;
62052;SDS011;48300;52.902;6.534;2023-12-07T06:38:53;20.60;;;9.65;;
62052;SDS011;48300;52.902;6.534;2023-12-07T06:41:23;22.55;;;9.43;;
62052;SDS011;48300;52.902;6.534;2023-12-07T06:43:49;20.95;;;9.55;;
62052;SDS011;48300;52.902;6.534;2023-12-07T06:46:15;21.42;;;10.27;;
62052;SDS011;48300;52.902;6.534;2023-12-07T06:48:41;20.80;;;9.77;;
62052;SDS011;48300;52.902;6.534;2023-12-07T06:51:07;19.33;;;9.93;;
62052;SDS011;48300;52.902;6.534;2023-12-07T06:53:33;16.80;;;8.63;;
62052;SDS011;48300;52.902;6.534;2023-12-07T06:55:59;19.70;;;9.88;;
62052;SDS011;48300;52.902;6.534;2023-12-07T06:58:25;20.15;;;8.70;;
62052;SDS011;48300;52.902;6.534;2023-12-07T07:00:51;15.25;;;8.75;;
62052;SDS011;48300;52.902;6.534;2023-12-07T07:03:17;16.92;;;9.10;;
62052;SDS011;48300;52.902;6.534;2023-12-07T07:05:43;17.15;;;9.52;;
62052;SDS011;48300;52.902;6.534;2023-12-07T07:08:09;23.17;;;11.23;;
62052;SDS011;48300;52.902;6.534;2023-12-07T07:10:36;21.98;;;10.95;;
62052;SDS011;48300;52.902;6.534;2023-12-07T07:13:02;22.40;;;11.35;;
62052;SDS011;48300;52.902;6.534;2023-12-07T07:15:32;23.25;;;11.48;;
62052;SDS011;48300;52.902;6.534;2023-12-07T07:17:58;24.13;;;12.45;;
62052;SDS011;48300;52.902;6.534;2023-12-07T07:20:25;23.92;;;11.77;;
62052;SDS011;48300;52.902;6.534;2023-12-07T07:22:51;21.13;;;11.45;;
62052;SDS011;48300;52.902;6.534;2023-12-07T07:25:17;27.15;;;12.38;;
62052;SDS011;48300;52.902;6.534;2023-12-07T07:27:47;23.05;;;11.73;;
62052;SDS011;48300;52.902;6.534;2023-12-07T07:30:13;21.90;;;11.63;;
62052;SDS011;48300;52.902;6.534;2023-12-07T07:32:40;23.13;;;12.43;;
62052;SDS011;48300;52.902;6.534;2023-12-07T07:35:06;23.80;;;11.75;;
62052;SDS011;48300;52.902;6.534;2023-12-07T07:37:33;21.60;;;11.82;;
62052;SDS011;48300;52.902;6.534;2023-12-07T07:39:59;19.83;;;10.98;;
62052;SDS011;48300;52.902;6.534;2023-12-07T07:42:25;26.85;;;12.13;;
62052;SDS011;48300;52.902;6.534;2023-12-07T07:44:51;19.50;;;11.05;;
62052;SDS011;48300;52.902;6.534;2023-12-07T07:47:17;25.52;;;12.13;;
62052;SDS011;48300;52.902;6.534;2023-12-07T07:49:43;23.98;;;11.75;;
62052;SDS011;48300;52.902;6.534;2023-12-07T07:52:09;22.83;;;12.95;;
62052;SDS011;48300;52.902;6.534;2023-12-07T07:54:35;22.60;;;11.88;;
62052;SDS011;48300;52.902;6.534;2023-12-07T07:57:02;23.45;;;11.52;;
62052;SDS011;48300;52.902;6.534;2023-12-07T07:59:28;21.75;;;11.65;;
62052;SDS011;48300;52.902;6.534;2023-12-07T08:01:56;19.45;;;10.82;;
62052;SDS011;48300;52.902;6.534;2023-12-07T08:04:22;20.75;;;10.98;;
62052;SDS011;48300;52.902;6.534;2023-12-07T08:06:48;20.50;;;11.40;;
62052;SDS011;48300;52.902;6.534;2023-12-07T08:09:14;25.63;;;12.77;;
62052;SDS011;48300;52.902;6.534;2023-12-07T08:11:40;21.33;;;11.70;;
62052;SDS011;48300;52.902;6.534;2023-12-07T08:14:06;27.05;;;11.80;;
62052;SDS011;48300;52.902;6.534;2023-12-07T08:16:32;23.55;;;12.85;;
62052;SDS011;48300;52.902;6.534;2023-12-07T08:18:58;25.08;;;12.43;;
62052;SDS011;48300;52.902;6.534;2023-12-07T08:21:24;24.23;;;11.68;;
62052;SDS011;48300;52.902;6.534;2023-12-07T08:23:50;25.25;;;12.88;;
62052;SDS011;48300;52.902;6.534;2023-12-07T08:26:16;22.58;;;11.65;;
62052;SDS011;48300;52.902;6.534;2023-12-07T08:28:43;25.13;;;12.18;;
62052;SDS011;48300;52.902;6.534;2023-12-07T08:31:09;22.17;;;11.27;;
62052;SDS011;48300;52.902;6.534;2023-12-07T08:33:35;25.40;;;11.77;;
62052;SDS011;48300;52.902;6.534;2023-12-07T08:36:04;22.55;;;11.82;;
62052;SDS011;48300;52.902;6.534;2023-12-07T08:38:30;22.60;;;11.80;;
62052;SDS011;48300;52.902;6.534;2023-12-07T08:40:57;26.50;;;12.05;;
62052;SDS011;48300;52.902;6.534;2023-12-07T08:43:23;25.73;;;11.75;;
62052;SDS011;48300;52.902;6.534;2023-12-07T08:45:52;21.33;;;11.10;;
62052;SDS011;48300;52.902;6.534;2023-12-07T08:48:19;23.92;;;11.77;;
62052;SDS011;48300;52.902;6.534;2023-12-07T08:50:45;25.08;;;12.38;;
62052;SDS011;48300;52.902;6.534;2023-12-07T08:53:11;24.73;;;11.98;;
62052;SDS011;48300;52.902;6.534;2023-12-07T08:55:37;28.90;;;13.73;;
62052;SDS011;48300;52.902;6.534;2023-12-07T08:58:04;23.08;;;11.48;;
62052;SDS011;48300;52.902;6.534;2023-12-07T09:00:31;30.55;;;13.60;;
62052;SDS011;48300;52.902;6.534;2023-12-07T09:02:57;27.90;;;13.55;;
62052;SDS011;48300;52.902;6.534;2023-12-07T09:05:23;28.80;;;14.43;;
62052;SDS011;48300;52.902;6.534;2023-12-07T09:07:49;29.17;;;13.88;;
62052;SDS011;48300;52.902;6.534;2023-12-07T09:10:15;30.23;;;15.00;;
62052;SDS011;48300;52.902;6.534;2023-12-07T09:12:41;29.05;;;13.52;;
62052;SDS011;48300;52.902;6.534;2023-12-07T09:15:07;28.42;;;14.75;;
62052;SDS011;48300;52.902;6.534;2023-12-07T09:17:34;40.83;;;16.08;;
62052;SDS011;48300;52.902;6.534;2023-12-07T09:20:00;32.90;;;14.93;;
62052;SDS011;48300;52.902;6.534;2023-12-07T09:22:26;29.48;;;13.98;;
62052;SDS011;48300;52.902;6.534;2023-12-07T09:24:52;29.23;;;14.48;;
62052;SDS011;48300;52.902;6.534;2023-12-07T09:27:18;30.50;;;14.60;;
62052;SDS011;48300;52.902;6.534;2023-12-07T09:29:44;28.08;;;14.27;;
62052;SDS011;48300;52.902;6.534;2023-12-07T09:32:10;29.67;;;14.88;;
62052;SDS011;48300;52.902;6.534;2023-12-07T09:34:36;26.80;;;13.80;;
62052;SDS011;48300;52.902;6.534;2023-12-07T09:37:05;27.55;;;15.38;;
62052;SDS011;48300;52.902;6.534;2023-12-07T09:39:32;27.73;;;15.05;;
62052;SDS011;48300;52.902;6.534;2023-12-07T09:41:58;27.85;;;14.18;;
62052;SDS011;48300;52.902;6.534;2023-12-07T09:44:24;30.65;;;14.85;;
62052;SDS011;48300;52.902;6.534;2023-12-07T09:46:50;30.83;;;15.20;;
62052;SDS011;48300;52.902;6.534;2023-12-07T09:49:16;30.77;;;14.30;;
62052;SDS011;48300;52.902;6.534;2023-12-07T09:51:43;30.35;;;15.02;;
62052;SDS011;48300;52.902;6.534;2023-12-07T09:54:10;48.47;;;15.60;;
62052;SDS011;48300;52.902;6.534;2023-12-07T09:56:36;45.97;;;14.73;;
62052;SDS011;48300;52.902;6.534;2023-12-07T09:59:02;42.72;;;14.07;;
62052;SDS011;48300;52.902;6.534;2023-12-07T10:01:29;53.67;;;13.07;;
62052;SDS011;48300;52.902;6.534;2023-12-07T10:06:43;70.03;;;15.20;;
62052;SDS011;48300;52.902;6.534;2023-12-07T10:09:16;72.03;;;15.00;;
62052;SDS011;48300;52.902;6.534;2023-12-07T10:11:44;52.72;;;12.90;;
62052;SDS011;48300;52.902;6.534;2023-12-07T10:14:10;47.08;;;12.20;;
62052;SDS011;48300;52.902;6.534;2023-12-07T10:16:36;62.80;;;13.43;;
62052;SDS011;48300;52.902;6.534;2023-12-07T10:19:12;80.03;;;14.05;;
62052;SDS011;48300;52.902;6.534;2023-12-07T10:21:39;53.50;;;12.32;;
62052;SDS011;48300;52.902;6.534;2023-12-07T10:24:05;54.13;;;13.38;;
62052;SDS011;48300;52.902;6.534;2023-12-07T10:26:31;60.58;;;13.65;;
62052;SDS011;48300;52.902;6.534;2023-12-07T10:28:57;46.92;;;12.13;;
62052;SDS011;48300;52.902;6.534;2023-12-07T10:31:25;56.40;;;12.30;;
62052;SDS011;48300;52.902;6.534;2023-12-07T10:33:51;30.77;;;10.45;;
62052;SDS011;48300;52.902;6.534;2023-12-07T10:36:17;79.80;;;12.10;;
62052;SDS011;48300;52.902;6.534;2023-12-07T10:38:43;42.45;;;10.38;;
62052;SDS011;48300;52.902;6.534;2023-12-07T10:41:11;42.03;;;12.00;;
62052;SDS011;48300;52.902;6.534;2023-12-07T10:43:39;54.47;;;11.73;;
62052;SDS011;48300;52.902;6.534;2023-12-07T10:46:08;36.17;;;10.40;;
62052;SDS011;48300;52.902;6.534;2023-12-07T10:48:34;28.70;;;10.63;;
62052;SDS011;48300;52.902;6.534;2023-12-07T10:51:06;54.55;;;11.50;;
62052;SDS011;48300;52.902;6.534;2023-12-07T10:53:40;29.27;;;10.40;;
62052;SDS011;48300;52.902;6.534;2023-12-07T10:56:18;26.83;;;10.98;;
62052;SDS011;48300;52.902;6.534;2023-12-07T10:58:47;45.83;;;11.15;;
62052;SDS011;48300;52.902;6.534;2023-12-07T11:01:14;45.03;;;11.38;;
62052;SDS011;48300;52.902;6.534;2023-12-07T11:03:42;44.70;;;12.98;;
62052;SDS011;48300;52.902;6.534;2023-12-07T11:06:09;53.45;;;14.00;;
62052;SDS011;48300;52.902;6.534;2023-12-07T11:08:39;38.00;;;11.60;;
62052;SDS011;48300;52.902;6.534;2023-12-07T11:11:10;61.30;;;12.27;;
62052;SDS011;48300;52.902;6.534;2023-12-07T11:13:38;57.15;;;12.85;;
62052;SDS011;48300;52.902;6.534;2023-12-07T11:16:04;50.70;;;12.48;;
62052;SDS011;48300;52.902;6.534;2023-12-07T11:18:30;45.55;;;11.77;;
62052;SDS011;48300;52.902;6.534;2023-12-07T11:20:56;47.67;;;12.00;;
62052;SDS011;48300;52.902;6.534;2023-12-07T11:23:23;70.60;;;13.27;;
62052;SDS011;48300;52.902;6.534;2023-12-07T11:25:50;50.58;;;12.27;;
62052;SDS011;48300;52.902;6.534;2023-12-07T11:28:17;48.17;;;12.98;;
62052;SDS011;48300;52.902;6.534;2023-12-07T11:30:44;58.25;;;13.00;;
62052;SDS011;48300;52.902;6.534;2023-12-07T11:33:10;32.13;;;11.52;;
62052;SDS011;48300;52.902;6.534;2023-12-07T11:41:28;42.15;;;13.48;;
62052;SDS011;48300;52.902;6.534;2023-12-07T11:43:57;60.65;;;14.00;;
62052;SDS011;48300;52.902;6.534;2023-12-07T11:46:23;34.67;;;11.85;;
62052;SDS011;48300;52.902;6.534;2023-12-07T11:48:49;57.13;;;13.18;;
62052;SDS011;48300;52.902;6.534;2023-12-07T11:51:16;36.88;;;12.30;;
62052;SDS011;48300;52.902;6.534;2023-12-07T11:53:43;41.00;;;12.13;;
62052;SDS011;48300;52.902;6.534;2023-12-07T11:56:09;53.15;;;14.05;;
62052;SDS011;48300;52.902;6.534;2023-12-07T11:58:37;51.58;;;13.50;;
62052;SDS011;48300;52.902;6.534;2023-12-07T12:01:04;34.05;;;11.52;;
62052;SDS011;48300;52.902;6.534;2023-12-07T12:03:30;41.58;;;12.13;;
62052;SDS011;48300;52.902;6.534;2023-12-07T12:06:02;47.15;;;13.45;;
62052;SDS011;48300;52.902;6.534;2023-12-07T12:08:29;35.58;;;13.27;;
62052;SDS011;48300;52.902;6.534;2023-12-07T12:10:55;40.72;;;12.73;;
62052;SDS011;48300;52.902;6.534;2023-12-07T12:13:33;40.58;;;12.55;;
62052;SDS011;48300;52.902;6.534;2023-12-07T12:15:59;32.63;;;14.43;;
62052;SDS011;48300;52.902;6.534;2023-12-07T12:18:26;33.83;;;13.00;;
62052;SDS011;48300;52.902;6.534;2023-12-07T12:20:53;34.88;;;12.40;;
62052;SDS011;48300;52.902;6.534;2023-12-07T12:23:19;34.75;;;12.43;;
62052;SDS011;48300;52.902;6.534;2023-12-07T12:25:46;28.08;;;12.18;;
62052;SDS011;48300;52.902;6.534;2023-12-07T12:28:14;70.13;;;15.13;;
62052;SDS011;48300;52.902;6.534;2023-12-07T12:30:40;33.03;;;12.68;;
62052;SDS011;48300;52.902;6.534;2023-12-07T12:33:07;36.20;;;14.32;;
62052;SDS011;48300;52.902;6.534;2023-12-07T12:35:33;33.13;;;13.68;;
62052;SDS011;48300;52.902;6.534;2023-12-07T12:37:59;47.35;;;14.52;;
62052;SDS011;48300;52.902;6.534;2023-12-07T12:40:27;68.53;;;23.80;;
62052;SDS011;48300;52.902;6.534;2023-12-07T12:42:57;48.53;;;15.02;;
62052;SDS011;48300;52.902;6.534;2023-12-07T12:45:23;39.78;;;14.20;;
62052;SDS011;48300;52.902;6.534;2023-12-07T12:47:49;34.10;;;14.00;;
62052;SDS011;48300;52.902;6.534;2023-12-07T12:53:00;60.97;;;27.40;;
62052;SDS011;48300;52.902;6.534;2023-12-07T12:55:26;48.35;;;14.05;;
62052;SDS011;48300;52.902;6.534;2023-12-07T12:57:55;28.85;;;12.63;;
62052;SDS011;48300;52.902;6.534;2023-12-07T13:00:21;39.33;;;14.85;;
62052;SDS011;48300;52.902;6.534;2023-12-07T13:02:47;48.75;;;15.65;;
62052;SDS011;48300;52.902;6.534;2023-12-07T13:05:13;32.60;;;13.98;;
62052;SDS011;48300;52.902;6.534;2023-12-07T13:07:39;27.25;;;13.00;;
62052;SDS011;48300;52.902;6.534;2023-12-07T13:10:05;39.88;;;14.75;;
62052;SDS011;48300;52.902;6.534;2023-12-07T13:12:33;35.35;;;14.45;;
62052;SDS011;48300;52.902;6.534;2023-12-07T13:15:00;29.85;;;13.98;;
62052;SDS011;48300;52.902;6.534;2023-12-07T13:17:26;35.28;;;14.63;;
62052;SDS011;48300;52.902;6.534;2023-12-07T13:19:52;34.10;;;13.93;;
62052;SDS011;48300;52.902;6.534;2023-12-07T13:22:19;44.65;;;15.68;;
62052;SDS011;48300;52.902;6.534;2023-12-07T13:24:47;30.63;;;14.48;;
62052;SDS011;48300;52.902;6.534;2023-12-07T13:27:13;47.28;;;15.95;;
62052;SDS011;48300;52.902;6.534;2023-12-07T13:29:40;30.88;;;14.02;;
62052;SDS011;48300;52.902;6.534;2023-12-07T13:32:06;31.58;;;14.40;;
62052;SDS011;48300;52.902;6.534;2023-12-07T13:34:33;31.27;;;14.40;;
62052;SDS011;48300;52.902;6.534;2023-12-07T13:36:59;33.80;;;14.82;;
62052;SDS011;48300;52.902;6.534;2023-12-07T13:39:25;35.80;;;13.90;;
62052;SDS011;48300;52.902;6.534;2023-12-07T13:41:55;35.65;;;15.25;;
62052;SDS011;48300;52.902;6.534;2023-12-07T13:44:21;43.17;;;16.17;;
62052;SDS011;48300;52.902;6.534;2023-12-07T13:46:49;32.22;;;13.55;;
62052;SDS011;48300;52.902;6.534;2023-12-07T13:49:15;33.38;;;15.07;;
62052;SDS011;48300;52.902;6.534;2023-12-07T13:51:41;38.13;;;15.20;;
62052;SDS011;48300;52.902;6.534;2023-12-07T13:54:07;35.05;;;14.05;;
62052;SDS011;48300;52.902;6.534;2023-12-07T13:56:34;38.20;;;15.82;;
62052;SDS011;48300;52.902;6.534;2023-12-07T13:59:00;37.25;;;14.80;;
62052;SDS011;48300;52.902;6.534;2023-12-07T14:01:27;38.53;;;15.55;;
62052;SDS011;48300;52.902;6.534;2023-12-07T14:03:53;40.75;;;16.23;;
62052;SDS011;48300;52.902;6.534;2023-12-07T14:06:23;45.35;;;14.88;;
62052;SDS011;48300;52.902;6.534;2023-12-07T14:08:49;40.53;;;15.57;;
62052;SDS011;48300;52.902;6.534;2023-12-07T14:11:16;42.50;;;16.60;;
62052;SDS011;48300;52.902;6.534;2023-12-07T14:13:43;47.25;;;16.33;;
62052;SDS011;48300;52.902;6.534;2023-12-07T14:16:11;48.10;;;17.83;;
62052;SDS011;48300;52.902;6.534;2023-12-07T14:18:37;48.58;;;19.08;;
62052;SDS011;48300;52.902;6.534;2023-12-07T14:21:03;58.25;;;18.95;;
62052;SDS011;48300;52.902;6.534;2023-12-07T14:23:29;59.00;;;19.80;;
62052;SDS011;48300;52.902;6.534;2023-12-07T14:25:55;51.25;;;19.65;;
62052;SDS011;48300;52.902;6.534;2023-12-07T14:30:50;68.22;;;19.83;;
62052;SDS011;48300;52.902;6.534;2023-12-07T14:33:21;64.40;;;21.38;;
62052;SDS011;48300;52.902;6.534;2023-12-07T14:35:47;63.60;;;19.35;;
62052;SDS011;48300;52.902;6.534;2023-12-07T14:38:14;70.18;;;20.85;;
62052;SDS011;48300;52.902;6.534;2023-12-07T14:40:40;69.28;;;21.80;;
62052;SDS011;48300;52.902;6.534;2023-12-07T14:43:06;63.60;;;21.15;;